Time;durP1;ratioP1;P1;durP2;ratioP2;P2;SDS_P1;SDS_P2;PMS_P1;PMS_P2;Temp;Humidity;BMP_temperature;BMP_pressure;BME280_temperature;BME280_humidity;BME280_pressure;Samples;Min_cycle;Max_cycle;Signal;HPM_P1;HPM_P2
2024/02/27 00:00:09;;;;;;;;;;;;;;;11.61;49.70;100099.84;4961882;27;127740;-73
2024/02/27 00:02:35;;;;;;;;;;;;;;;11.60;49.62;100093.66;4984977;27;98083;-72
2024/02/27 00:05:02;;;;;;;;;;;;;;;11.59;49.80;100089.31;4981808;27;98543;-73
2024/02/27 00:07:28;;;;;;;;;;;;;;;11.60;49.51;100095.56;4964462;27;99630;-73
2024/02/27 00:09:58;;;;;;;;;;;;;;;11.59;49.65;100093.91;4964389;27;98171;-73
2024/02/27 00:12:25;;;;;;;;;;;;;;;11.59;49.79;100096.63;4962817;27;99977;-72
2024/02/27 00:14:52;;;;;;;;;;;;;;;11.58;49.92;100092.31;4968678;27;97837;-72
2024/02/27 00:17:20;;;;;;;;;;;;;;;11.57;49.72;100086.13;4977657;27;98464;-72
2024/02/27 00:19:46;;;;;;;;;;;;;;;11.57;49.67;100088.81;4966322;27;98183;-73
2024/02/27 00:22:12;;;;;;;;;;;;;;;11.57;49.72;100088.00;4984988;27;98117;-72
2024/02/27 00:24:38;;;;;;;;;;;;;;;11.54;49.65;100084.78;4960811;27;116872;-73
2024/02/27 00:27:04;;;;;;;;;;;;;;;11.54;49.66;100084.78;4980169;27;100630;-73
2024/02/27 00:29:31;;;;;;;;;;;;;;;11.55;49.53;100080.19;4987007;27;98927;-72
2024/02/27 00:31:58;;;;;;;;;;;;;;;11.54;49.75;100089.38;4967981;27;98067;-73
2024/02/27 00:34:25;;;;;;;;;;;;;;;11.53;49.47;100088.56;4988348;27;98102;-73
2024/02/27 00:36:51;;;;;;;;;;;;;;;11.53;49.66;100090.47;4954688;27;99794;-72
2024/02/27 00:39:17;;;;;;;;;;;;;;;11.52;49.53;100094.25;4947082;27;127768;-72
2024/02/27 00:41:48;;;;;;;;;;;;;;;11.50;49.82;100099.13;4966006;27;98156;-73
2024/02/27 00:44:14;;;;;;;;;;;;;;;11.50;49.93;100101.81;4973203;27;98214;-73
2024/02/27 00:46:42;;;;;;;;;;;;;;;11.49;49.75;100105.63;4985062;27;98444;-73
2024/02/27 00:49:09;;;;;;;;;;;;;;;11.46;49.76;100101.56;4971254;27;98331;-72
2024/02/27 00:51:39;;;;;;;;;;;;;;;11.44;49.89;100109.16;5007264;27;99592;-73
2024/02/27 00:54:09;;;;;;;;;;;;;;;11.45;49.82;100115.38;4967585;27;98085;-72
2024/02/27 00:56:35;;;;;;;;;;;;;;;11.43;49.88;100118.31;4987980;27;98508;-72
2024/02/27 00:59:01;;;;;;;;;;;;;;;11.42;49.86;100105.13;4966582;27;98987;-72
2024/02/27 01:01:27;;;;;;;;;;;;;;;11.40;49.77;100105.41;4967500;27;102280;-72
2024/02/27 01:03:54;;;;;;;;;;;;;;;11.39;49.78;100124.56;4985468;27;97938;-73
2024/02/27 01:06:20;;;;;;;;;;;;;;;11.38;49.57;100128.34;4951267;27;99567;-72
2024/02/27 01:08:46;;;;;;;;;;;;;;;11.36;49.73;100144.00;4973687;27;111484;-72
2024/02/27 01:11:12;;;;;;;;;;;;;;;11.34;49.94;100154.28;4986157;27;128266;-72
2024/02/27 01:13:38;;;;;;;;;;;;;;;11.33;49.75;100160.78;4984222;27;117543;-72
2024/02/27 01:16:04;;;;;;;;;;;;;;;11.31;49.94;100156.44;4943342;28;99161;-72
2024/02/27 01:18:30;;;;;;;;;;;;;;;11.29;49.74;100161.34;4945622;28;98873;-72
2024/02/27 01:20:56;;;;;;;;;;;;;;;11.27;49.57;100174.28;4948366;28;114658;-71
2024/02/27 01:23:22;;;;;;;;;;;;;;;11.27;49.67;100181.56;4945901;28;98266;-72
2024/02/27 01:25:48;;;;;;;;;;;;;;;11.25;49.93;100189.97;4946255;28;129163;-72
2024/02/27 01:28:14;;;;;;;;;;;;;;;11.25;49.65;100202.66;4960770;28;127231;-72
2024/02/27 01:30:40;;;;;;;;;;;;;;;11.23;50.01;100194.00;4930439;28;126993;-72
2024/02/27 01:33:06;;;;;;;;;;;;;;;11.22;50.00;100184.31;4929960;28;118455;-72
2024/02/27 01:35:32;;;;;;;;;;;;;;;11.20;49.82;100181.06;4950462;28;98416;-72
2024/02/27 01:37:58;;;;;;;;;;;;;;;11.19;49.74;100198.34;4979205;27;98303;-72
2024/02/27 01:40:24;;;;;;;;;;;;;;;11.18;49.84;100202.13;4930737;28;98683;-72
2024/02/27 01:42:50;;;;;;;;;;;;;;;11.17;50.05;100204.03;4963604;28;102024;-72
2024/02/27 01:45:18;;;;;;;;;;;;;;;11.15;50.01;100200.78;4962673;28;114788;-72
2024/02/27 01:47:46;;;;;;;;;;;;;;;11.15;49.77;100211.59;4946415;28;97953;-72
2024/02/27 01:50:12;;;;;;;;;;;;;;;11.13;49.92;100212.97;4947169;28;98954;-72
2024/02/27 01:52:39;;;;;;;;;;;;;;;11.12;49.95;100204.06;4946060;28;98363;-72
2024/02/27 01:55:05;;;;;;;;;;;;;;;11.11;49.73;100196.22;4948772;28;99396;-72
2024/02/27 01:57:31;;;;;;;;;;;;;;;11.11;49.72;100198.94;4929732;28;98164;-72
2024/02/27 01:59:57;;;;;;;;;;;;;;;11.11;49.96;100196.22;4946279;28;98079;-72
2024/02/27 02:02:23;;;;;;;;;;;;;;;11.09;50.04;100196.53;4963738;28;98148;-71
2024/02/27 02:04:49;;;;;;;;;;;;;;;11.09;49.93;100201.91;4963134;28;105497;-72
2024/02/27 02:07:17;;;;;;;;;;;;;;;11.07;49.99;100198.69;4947504;28;117026;-72
2024/02/27 02:09:43;;;;;;;;;;;;;;;11.08;49.81;100202.97;4980180;27;98443;-72
2024/02/27 02:12:08;;;;;;;;;;;;;;;11.07;50.03;100207.56;4961591;27;98045;-72
2024/02/27 02:14:34;;;;;;;;;;;;;;;11.07;49.81;100217.56;4963038;28;119196;-72
2024/02/27 02:17:01;;;;;;;;;;;;;;;11.04;49.61;100221.63;4977869;27;124991;-72
2024/02/27 02:19:27;;;;;;;;;;;;;;;11.04;49.77;100224.34;4963422;27;98195;-72
2024/02/27 02:21:56;;;;;;;;;;;;;;;11.03;50.08;100216.50;4968688;27;117719;-71
2024/02/27 02:24:22;;;;;;;;;;;;;;;11.03;49.75;100219.19;4965337;27;98188;-72
2024/02/27 02:26:50;;;;;;;;;;;;;;;11.01;50.10;100214.09;4982021;27;125351;-72
2024/02/27 02:29:16;;;;;;;;;;;;;;;10.99;49.85;100216.25;4963985;27;100165;-72
2024/02/27 02:31:42;;;;;;;;;;;;;;;11.00;49.90;100222.44;4966886;27;99616;-72
2024/02/27 02:34:08;;;;;;;;;;;;;;;10.99;49.75;100232.41;4947453;27;98099;-72
2024/02/27 02:36:34;;;;;;;;;;;;;;;10.97;50.01;100226.50;4951017;27;98099;-72
2024/02/27 02:39:00;;;;;;;;;;;;;;;10.97;49.73;100226.50;4964748;27;98091;-72
2024/02/27 02:41:26;;;;;;;;;;;;;;;10.95;50.17;100220.56;4950730;27;98300;-72
2024/02/27 02:43:52;;;;;;;;;;;;;;;10.95;50.08;100222.47;4966972;27;113444;-72
2024/02/27 02:46:18;;;;;;;;;;;;;;;10.94;50.19;100226.25;4983058;27;100171;-72
2024/02/27 02:48:44;;;;;;;;;;;;;;;10.92;49.94;100214.91;4966605;27;129327;-72
2024/02/27 02:51:10;;;;;;;;;;;;;;;10.91;49.83;100222.22;4985874;27;99022;-72
2024/02/27 02:53:37;;;;;;;;;;;;;;;10.91;50.09;100216.00;4986117;27;98247;-72
2024/02/27 02:56:03;;;;;;;;;;;;;;;10.89;50.19;100215.50;4967033;27;97960;-72
2024/02/27 02:58:29;;;;;;;;;;;;;;;10.88;49.84;100217.34;4966095;27;98430;-72
2024/02/27 03:00:55;;;;;;;;;;;;;;;10.87;50.01;100228.44;4962599;27;98603;-72
2024/02/27 03:03:21;;;;;;;;;;;;;;;10.85;50.07;100226.00;4962676;27;126792;-72
2024/02/27 03:05:48;;;;;;;;;;;;;;;10.85;49.94;100233.31;4966889;27;105521;-72
2024/02/27 03:08:14;;;;;;;;;;;;;;;10.83;49.77;100238.94;4981155;27;98129;-72
2024/02/27 03:10:43;;;;;;;;;;;;;;;10.82;50.04;100248.13;4966350;27;98780;-72
2024/02/27 03:13:09;;;;;;;;;;;;;;;10.80;50.02;100248.38;4967008;27;98415;-72
2024/02/27 03:15:36;;;;;;;;;;;;;;;10.79;49.70;100257.56;4965940;27;98377;-72
2024/02/27 03:18:02;;;;;;;;;;;;;;;10.78;49.71;100255.16;4967358;27;97959;-72
2024/02/27 03:20:30;;;;;;;;;;;;;;;10.77;49.81;100261.63;4946496;27;98188;-72
2024/02/27 03:22:56;;;;;;;;;;;;;;;10.76;49.75;100258.09;4946372;27;113113;-72
2024/02/27 03:25:22;;;;;;;;;;;;;;;10.75;50.07;100277.25;4949425;27;130740;-72
2024/02/27 03:27:48;;;;;;;;;;;;;;;10.73;50.31;100263.25;4925794;27;98878;-72
2024/02/27 03:30:17;;;;;;;;;;;;;;;10.72;49.92;100254.34;4944340;27;115557;-72
2024/02/27 03:32:44;;;;;;;;;;;;;;;10.72;50.17;100265.13;4948699;27;98253;-72
2024/02/27 03:35:10;;;;;;;;;;;;;;;10.72;49.71;100264.31;4946324;27;99861;-72
2024/02/27 03:37:37;;;;;;;;;;;;;;;10.70;49.67;100253.81;4950671;27;125388;-72
2024/02/27 03:40:05;;;;;;;;;;;;;;;10.69;50.11;100259.47;4949299;27;98029;-71
2024/02/27 03:42:33;;;;;;;;;;;;;;;10.69;49.87;100259.47;4951434;27;98526;-72
2024/02/27 03:44:59;;;;;;;;;;;;;;;10.68;49.57;100252.47;4949541;27;99673;-72
2024/02/27 03:47:25;;;;;;;;;;;;;;;10.66;49.77;100260.03;4953004;27;98255;-72
2024/02/27 03:49:51;;;;;;;;;;;;;;;10.66;50.22;100268.94;4949029;27;98427;-71
2024/02/27 03:52:16;;;;;;;;;;;;;;;10.65;49.88;100261.94;4982403;27;129239;-72
2024/02/27 03:54:44;;;;;;;;;;;;;;;10.65;49.85;100261.94;4931169;27;129007;-72
2024/02/27 03:57:11;;;;;;;;;;;;;;;10.64;50.09;100268.38;4956341;27;98890;-72
2024/02/27 03:59:37;;;;;;;;;;;;;;;10.63;49.85;100269.47;4951560;27;98132;-72
2024/02/27 04:02:03;;;;;;;;;;;;;;;10.63;49.62;100272.16;4928895;28;98662;-72
2024/02/27 04:04:30;;;;;;;;;;;;;;;10.64;49.83;100270.25;4965355;27;98025;-72
2024/02/27 04:06:56;;;;;;;;;;;;;;;10.62;50.25;100262.47;4948745;27;98171;-72
2024/02/27 04:09:22;;;;;;;;;;;;;;;10.62;49.88;100278.63;4939516;27;118482;-72
2024/02/27 04:11:47;;;;;;;;;;;;;;;10.61;50.11;100270.81;4951247;27;106435;-71
2024/02/27 04:14:14;;;;;;;;;;;;;;;10.60;50.30;100275.38;4947963;28;127421;-71
2024/02/27 04:16:40;;;;;;;;;;;;;;;10.60;50.29;100274.59;4973418;27;117493;-72
2024/02/27 04:19:07;;;;;;;;;;;;;;;10.57;50.02;100274.06;4955133;27;98157;-71
2024/02/27 04:21:33;;;;;;;;;;;;;;;10.58;49.71;100282.97;4951128;27;127329;-71
2024/02/27 04:23:59;;;;;;;;;;;;;;;10.56;49.88;100277.81;5004158;27;98222;-72
2024/02/27 04:26:24;;;;;;;;;;;;;;;10.56;50.03;100285.91;4967649;27;128252;-71
2024/02/27 04:28:51;;;;;;;;;;;;;;;10.56;49.91;100285.91;4968307;27;102538;-71
2024/02/27 04:31:17;;;;;;;;;;;;;;;10.55;50.30;100292.38;4980706;27;98288;-72
2024/02/27 04:33:43;;;;;;;;;;;;;;;10.55;49.94;100283.50;4986748;27;105969;-71
2024/02/27 04:36:10;;;;;;;;;;;;;;;10.53;49.58;100281.06;4967673;27;98167;-71
2024/02/27 04:38:36;;;;;;;;;;;;;;;10.54;49.75;100289.97;4971504;27;99356;-71
2024/02/27 04:41:03;;;;;;;;;;;;;;;10.52;50.18;100292.91;4950579;27;98361;-71
2024/02/27 04:43:29;;;;;;;;;;;;;;;10.54;50.06;100300.75;4984743;27;98266;-71
2024/02/27 04:45:55;;;;;;;;;;;;;;;10.53;50.31;100302.63;4947506;27;98218;-71
2024/02/27 04:48:20;;;;;;;;;;;;;;;10.54;50.00;100301.56;4997623;27;98751;-71
2024/02/27 04:50:46;;;;;;;;;;;;;;;10.53;50.29;100291.84;4997168;27;127767;-71
2024/02/27 04:53:12;;;;;;;;;;;;;;;10.54;49.84;100298.06;4996304;27;127152;-71
2024/02/27 04:55:38;;;;;;;;;;;;;;;10.52;50.39;100298.31;5002108;27;97977;-71
2024/02/27 04:58:05;;;;;;;;;;;;;;;10.55;49.83;100305.84;4982816;27;98315;-71
2024/02/27 05:00:31;;;;;;;;;;;;;;;10.55;49.69;100313.13;4986297;27;107726;-72
2024/02/27 05:02:58;;;;;;;;;;;;;;;10.54;50.11;100308.84;4984740;27;98323;-72
2024/02/27 05:05:24;;;;;;;;;;;;;;;10.56;49.76;100314.75;4987369;27;109184;-71
2024/02/27 05:07:49;;;;;;;;;;;;;;;10.56;50.29;100326.34;4986192;27;98052;-71
2024/02/27 05:10:16;;;;;;;;;;;;;;;10.56;50.20;100322.84;4984344;27;99634;-71
2024/02/27 05:12:42;;;;;;;;;;;;;;;10.56;50.01;100325.53;4982608;27;98678;-71
2024/02/27 05:15:08;;;;;;;;;;;;;;;10.56;50.21;100333.63;5011706;27;98582;-71
2024/02/27 05:17:34;;;;;;;;;;;;;;;10.57;50.10;100344.16;5002967;27;98348;-72
2024/02/27 05:20:00;;;;;;;;;;;;;;;10.57;50.14;100344.16;4985285;27;98493;-71
2024/02/27 05:22:26;;;;;;;;;;;;;;;10.58;49.78;100339.56;5015532;27;98495;-71
2024/02/27 05:24:52;;;;;;;;;;;;;;;10.59;50.29;100345.75;4997335;27;98798;-71
2024/02/27 05:27:19;;;;;;;;;;;;;;;10.58;50.00;100353.03;4998185;27;99003;-71
2024/02/27 05:29:45;;;;;;;;;;;;;;;10.60;50.20;100347.38;5009271;27;99537;-71
2024/02/27 05:32:11;;;;;;;;;;;;;;;10.60;50.34;100342.78;4998208;27;98379;-71
2024/02/27 05:34:37;;;;;;;;;;;;;;;10.60;50.01;100341.97;4988559;27;98667;-71
2024/02/27 05:37:04;;;;;;;;;;;;;;;10.60;50.04;100334.69;4968253;27;119331;-72
2024/02/27 05:39:30;;;;;;;;;;;;;;;10.62;50.00;100337.13;5000750;27;98968;-72
2024/02/27 05:41:56;;;;;;;;;;;;;;;10.62;50.20;100337.13;4993685;27;99427;-72
2024/02/27 05:44:22;;;;;;;;;;;;;;;10.62;50.33;100346.03;4976213;27;127436;-72
2024/02/27 05:46:48;;;;;;;;;;;;;;;10.63;49.76;100339.53;4993089;27;98536;-72
2024/02/27 05:49:15;;;;;;;;;;;;;;;10.63;49.97;100344.13;4993831;27;101547;-72
2024/02/27 05:51:41;;;;;;;;;;;;;;;10.64;49.95;100334.97;4993653;27;99588;-71
2024/02/27 05:54:07;;;;;;;;;;;;;;;10.64;49.77;100337.66;4998701;27;98371;-72
2024/02/27 05:56:33;;;;;;;;;;;;;;;10.64;50.05;100338.47;4979386;27;98104;-72
2024/02/27 05:58:59;;;;;;;;;;;;;;;10.64;50.29;100341.16;4982165;27;98496;-72
2024/02/27 06:01:26;;;;;;;;;;;;;;;10.66;50.10;100346.28;4984239;27;126718;-72
2024/02/27 06:03:53;;;;;;;;;;;;;;;10.66;49.75;100351.69;5003892;27;98874;-71
2024/02/27 06:06:19;;;;;;;;;;;;;;;10.66;50.39;100355.19;4981314;27;100584;-72
2024/02/27 06:08:45;;;;;;;;;;;;;;;10.66;50.09;100352.50;4988955;27;112632;-71
2024/02/27 06:11:11;;;;;;;;;;;;;;;10.67;49.91;100362.19;4984958;27;99551;-71
2024/02/27 06:13:37;;;;;;;;;;;;;;;10.69;50.25;100370.81;5012345;27;98532;-71
2024/02/27 06:16:03;;;;;;;;;;;;;;;10.71;49.85;100362.47;5012482;27;116632;-71
2024/02/27 06:18:29;;;;;;;;;;;;;;;10.73;50.17;100373.78;4985372;27;102655;-71
2024/02/27 06:23:41;;;;;;;;;;;;;;;10.75;49.98;100372.44;4995977;27;98068;-71
2024/02/27 06:26:09;;;;;;;;;;;;;;;10.77;50.11;100369.47;4991738;27;98194;-71
2024/02/27 06:28:38;;;;;;;;;;;;;;;10.79;50.33;100365.41;4975167;27;100048;-71
2024/02/27 06:31:04;;;;;;;;;;;;;;;10.81;49.81;100367.84;4982000;27;126356;-71
2024/02/27 06:33:30;;;;;;;;;;;;;;;10.82;50.16;100378.34;4981215;27;98015;-72
2024/02/27 06:35:56;;;;;;;;;;;;;;;10.84;50.06;100374.56;4994895;27;119631;-71
2024/02/27 06:38:22;;;;;;;;;;;;;;;10.87;50.12;100372.16;4994011;27;98158;-71
2024/02/27 06:40:48;;;;;;;;;;;;;;;10.87;50.14;100377.53;4986176;27;99767;-71
2024/02/27 06:43:14;;;;;;;;;;;;;;;10.92;49.86;100387.50;4978558;27;99154;-71
2024/02/27 06:45:40;;;;;;;;;;;;;;;10.94;49.73;100386.16;4979259;27;99634;-71
2024/02/27 06:48:09;;;;;;;;;;;;;;;10.96;49.80;100392.09;4981247;27;98116;-71
2024/02/27 06:50:35;;;;;;;;;;;;;;;10.98;49.76;100394.53;4982919;27;97933;-71
2024/02/27 06:53:03;;;;;;;;;;;;;;;10.99;50.08;100391.56;4964544;27;98077;-71
2024/02/27 06:55:30;;;;;;;;;;;;;;;11.02;49.96;100398.31;4982449;27;97961;-71
2024/02/27 06:57:56;;;;;;;;;;;;;;;11.03;49.79;100399.91;4985481;27;98106;-71
2024/02/27 07:00:22;;;;;;;;;;;;;;;11.06;49.91;100402.88;4977618;27;111320;-71
2024/02/27 07:02:48;;;;;;;;;;;;;;;11.08;49.68;100408.00;4999558;27;99206;-71
2024/02/27 07:05:14;;;;;;;;;;;;;;;11.10;49.61;100413.13;4975194;27;98989;-71
2024/02/27 07:07:40;;;;;;;;;;;;;;;11.10;50.00;100416.63;4975436;27;119045;-72
2024/02/27 07:10:06;;;;;;;;;;;;;;;11.13;49.91;100418.78;4982395;27;98457;-71
2024/02/27 07:12:33;;;;;;;;;;;;;;;11.16;50.01;100420.13;4994693;27;98238;-71
2024/02/27 07:14:59;;;;;;;;;;;;;;;11.17;49.68;100414.47;4992098;27;98490;-72
2024/02/27 07:17:26;;;;;;;;;;;;;;;11.19;49.66;100419.59;4996678;27;99321;-71
2024/02/27 07:19:52;;;;;;;;;;;;;;;11.22;49.90;100427.94;4998736;27;99224;-71
2024/02/27 07:22:18;;;;;;;;;;;;;;;11.23;49.88;100426.84;4982574;27;104127;-71
2024/02/27 07:24:44;;;;;;;;;;;;;;;11.25;49.82;100423.91;5014166;27;98502;-72
2024/02/27 07:27:10;;;;;;;;;;;;;;;11.26;49.90;100436.31;4981733;27;99745;-71
2024/02/27 07:29:36;;;;;;;;;;;;;;;11.26;49.91;100423.63;4983723;27;98357;-71
2024/02/27 07:32:02;;;;;;;;;;;;;;;11.29;49.66;100431.16;4995983;27;129238;-71
2024/02/27 07:34:29;;;;;;;;;;;;;;;11.30;49.63;100434.69;4980139;27;116332;-71
2024/02/27 07:36:55;;;;;;;;;;;;;;;11.32;49.93;100437.94;4989944;27;98001;-71
2024/02/27 07:39:21;;;;;;;;;;;;;;;11.34;49.91;100437.66;4993730;27;99566;-71
2024/02/27 07:41:47;;;;;;;;;;;;;;;11.35;49.67;100439.25;4994392;27;97923;-71
2024/02/27 07:44:13;;;;;;;;;;;;;;;11.36;49.76;100438.16;4973792;27;116721;-71
2024/02/27 07:46:39;;;;;;;;;;;;;;;11.37;49.80;100446.00;5009983;27;109462;-71
2024/02/27 07:49:05;;;;;;;;;;;;;;;11.38;49.81;100453.00;4994346;27;129007;-71
2024/02/27 07:51:32;;;;;;;;;;;;;;;11.41;49.57;100457.06;4978999;27;128352;-71
2024/02/27 07:53:58;;;;;;;;;;;;;;;11.42;49.53;100459.47;4980245;27;98118;-71
2024/02/27 07:56:30;;;;;;;;;;;;;;;11.43;49.88;100453.00;4993355;27;100596;-71
2024/02/27 07:58:56;;;;;;;;;;;;;;;11.45;49.88;100460.84;4988308;27;99290;-71
2024/02/27 08:01:23;;;;;;;;;;;;;;;11.47;50.00;100456.75;4980589;27;98183;-71
2024/02/27 08:03:50;;;;;;;;;;;;;;;11.50;49.88;100464.31;4978791;27;98192;-71
2024/02/27 08:06:16;;;;;;;;;;;;;;;11.53;49.75;100466.47;4994118;27;120952;-71
2024/02/27 08:08:42;;;;;;;;;;;;;;;11.57;49.91;100471.34;4975286;27;99579;-71
2024/02/27 08:11:08;;;;;;;;;;;;;;;11.59;49.76;100461.06;4994856;27;98403;-71
2024/02/27 08:13:34;;;;;;;;;;;;;;;11.60;49.98;100463.50;4981580;27;109492;-71
2024/02/27 08:16:00;;;;;;;;;;;;;;;11.63;49.76;100459.44;4992256;27;126782;-71
2024/02/27 08:18:26;;;;;;;;;;;;;;;11.66;49.93;100467.00;4965617;27;114186;-71
2024/02/27 08:20:52;;;;;;;;;;;;;;;11.69;49.79;100466.44;4962981;27;98467;-71
2024/02/27 08:23:19;;;;;;;;;;;;;;;11.72;49.86;100468.59;4980267;27;98237;-71
2024/02/27 08:25:45;;;;;;;;;;;;;;;11.75;49.78;100473.44;4957966;27;99326;-71
2024/02/27 08:28:11;;;;;;;;;;;;;;;11.77;49.76;100460.47;4975412;27;99665;-71
2024/02/27 08:30:37;;;;;;;;;;;;;;;11.80;49.70;100468.84;4977066;27;99687;-71
2024/02/27 08:33:03;;;;;;;;;;;;;;;11.80;49.95;100479.66;4963382;27;98070;-71
2024/02/27 08:35:30;;;;;;;;;;;;;;;11.83;49.71;100485.56;4965685;27;98249;-71
2024/02/27 08:37:57;;;;;;;;;;;;;;;11.84;50.05;100493.44;4963849;27;98343;-71
2024/02/27 08:40:23;;;;;;;;;;;;;;;11.87;49.68;100497.47;4949793;27;98283;-71
2024/02/27 08:42:50;;;;;;;;;;;;;;;11.89;49.80;100506.91;4966446;27;98181;-71
2024/02/27 08:45:17;;;;;;;;;;;;;;;11.91;49.71;100507.47;4976587;27;98244;-71
2024/02/27 08:47:43;;;;;;;;;;;;;;;11.92;49.75;100509.06;4976653;27;98461;-71
2024/02/27 08:50:09;;;;;;;;;;;;;;;11.94;49.79;100516.91;4984112;27;98174;-71
2024/02/27 08:52:35;;;;;;;;;;;;;;;11.95;49.73;100510.44;4991514;27;98040;-71
2024/02/27 08:55:02;;;;;;;;;;;;;;;11.98;49.82;100512.56;4978173;27;98565;-71
2024/02/27 08:57:28;;;;;;;;;;;;;;;12.00;49.77;100500.41;4966313;27;107859;-71
2024/02/27 08:59:54;;;;;;;;;;;;;;;12.01;49.58;100503.91;4968661;27;129596;-71
2024/02/27 09:02:20;;;;;;;;;;;;;;;12.03;49.76;100510.66;4982798;27;98019;-71
2024/02/27 09:04:45;;;;;;;;;;;;;;;12.06;49.88;100509.28;4991800;27;106466;-71
2024/02/27 09:07:12;;;;;;;;;;;;;;;12.09;49.72;100511.44;4986696;27;128382;-71
2024/02/27 09:09:38;;;;;;;;;;;;;;;12.09;49.74;100511.44;4964762;27;97856;-71
2024/02/27 09:12:09;;;;;;;;;;;;;;;12.13;49.72;100517.91;4985710;27;100099;-71
2024/02/27 09:14:38;;;;;;;;;;;;;;;12.15;49.63;100520.34;4965297;27;99455;-71
2024/02/27 09:17:05;;;;;;;;;;;;;;;12.15;49.71;100517.66;4976568;27;98773;-71
2024/02/27 09:19:32;;;;;;;;;;;;;;;12.17;49.76;100521.69;4982991;27;98324;-71
2024/02/27 09:22:00;;;;;;;;;;;;;;;12.19;49.68;100518.72;4981890;27;98459;-71
2024/02/27 09:24:26;;;;;;;;;;;;;;;12.19;49.67;100516.81;4977401;27;98199;-71
2024/02/27 09:26:52;;;;;;;;;;;;;;;12.21;49.95;100521.94;4961550;27;98138;-71
2024/02/27 09:29:18;;;;;;;;;;;;;;;12.21;49.78;100525.44;4960923;27;99528;-71
2024/02/27 09:31:48;;;;;;;;;;;;;;;12.23;49.94;100523.28;4964378;27;98753;-71
2024/02/27 09:34:14;;;;;;;;;;;;;;;12.25;49.68;100523.81;4975934;27;98642;-71
2024/02/27 09:36:40;;;;;;;;;;;;;;;12.27;49.60;100524.34;4982272;27;98000;-71
2024/02/27 09:39:07;;;;;;;;;;;;;;;12.29;49.85;100532.97;4960270;27;98152;-71
2024/02/27 09:41:50;;;;;;;;;;;;;;;12.31;49.79;100526.50;4979039;27;98303;-71
2024/02/27 09:44:17;;;;;;;;;;;;;;;12.32;49.89;100528.13;4975976;27;98205;-71
2024/02/27 09:46:43;;;;;;;;;;;;;;;12.33;49.84;100524.31;4949243;27;99562;-71
2024/02/27 09:49:09;;;;;;;;;;;;;;;12.34;49.79;100528.63;4962936;27;98035;-71
2024/02/27 09:51:37;;;;;;;;;;;;;;;12.34;49.91;100534.03;4982395;27;98278;-71
2024/02/27 09:54:03;;;;;;;;;;;;;;;12.34;49.93;100540.28;4964004;27;98239;-71
2024/02/27 09:56:29;;;;;;;;;;;;;;;12.35;49.82;100533.78;4949118;27;98101;-71
2024/02/27 09:58:56;;;;;;;;;;;;;;;12.34;49.87;100534.03;4983321;27;113853;-71
2024/02/27 10:01:22;;;;;;;;;;;;;;;12.34;49.99;100529.47;4979767;27;98121;-71
2024/02/27 10:03:48;;;;;;;;;;;;;;;12.35;49.97;100543.78;4978784;27;98261;-71
2024/02/27 10:06:15;;;;;;;;;;;;;;;12.32;49.87;100537.03;4974898;27;116791;-71
2024/02/27 10:08:46;;;;;;;;;;;;;;;12.31;49.85;100540.81;4971186;27;99396;-71
2024/02/27 10:11:13;;;;;;;;;;;;;;;12.30;49.67;100547.31;4981407;27;99445;-71
2024/02/27 10:13:39;;;;;;;;;;;;;;;12.28;50.02;100550.28;4987857;27;98196;-71
2024/02/27 10:16:06;;;;;;;;;;;;;;;12.27;50.11;100558.69;4966351;27;98118;-71
2024/02/27 10:18:32;;;;;;;;;;;;;;;12.28;50.00;100553.00;4969953;27;98264;-71
2024/02/27 10:20:58;;;;;;;;;;;;;;;12.29;50.30;100551.91;4980320;27;98024;-71
2024/02/27 10:23:24;;;;;;;;;;;;;;;12.32;50.04;100557.84;4964588;27;113249;-71
2024/02/27 10:25:51;;;;;;;;;;;;;;;12.34;49.83;100552.97;4952251;27;102925;-71
2024/02/27 10:28:21;;;;;;;;;;;;;;;12.34;49.87;100553.78;4984900;27;98200;-71
2024/02/27 10:30:48;;;;;;;;;;;;;;;12.36;49.84;100548.91;4967544;27;110526;-71
2024/02/27 10:33:15;;;;;;;;;;;;;;;12.39;49.90;100552.97;4973120;27;99880;-71
2024/02/27 10:35:41;;;;;;;;;;;;;;;12.38;49.95;100552.16;4995627;27;101406;-71
2024/02/27 10:38:21;;;;;;;;;;;;;;;12.40;49.97;100554.56;4979196;27;127570;-71
2024/02/27 10:40:47;;;;;;;;;;;;;;;12.41;50.03;100551.56;4968721;27;98365;-71
2024/02/27 10:43:14;;;;;;;;;;;;;;;12.42;49.84;100557.81;4952713;27;98196;-71
2024/02/27 10:45:43;;;;;;;;;;;;;;;12.45;49.97;100554.53;4963388;27;99097;-71
2024/02/27 10:48:09;;;;;;;;;;;;;;;12.44;50.03;100558.34;4985694;27;110532;-71
2024/02/27 10:50:36;;;;;;;;;;;;;;;12.45;50.01;100557.25;4976643;27;97999;-71
2024/02/27 10:53:06;;;;;;;;;;;;;;;12.43;50.06;100552.13;4964559;27;98141;-71
2024/02/27 10:55:32;;;;;;;;;;;;;;;12.50;49.89;100554.53;4967617;27;106699;-71
2024/02/27 10:58:00;;;;;;;;;;;;;;;12.55;49.92;100559.91;4980146;27;97962;-71
2024/02/27 11:00:26;;;;;;;;;;;;;;;12.60;50.04;100553.66;4965261;27;97900;-71
2024/02/27 11:02:58;;;;;;;;;;;;;;;12.62;50.13;100554.22;4972908;27;99809;-70
2024/02/27 11:05:31;;;;;;;;;;;;;;;12.60;49.84;100553.66;4987417;27;98245;-71
2024/02/27 11:07:57;;;;;;;;;;;;;;;12.61;50.00;100563.38;4965807;27;107403;-71
2024/02/27 11:10:29;;;;;;;;;;;;;;;12.61;49.92;100566.88;4965431;27;98121;-71
2024/02/27 11:12:55;;;;;;;;;;;;;;;12.62;49.99;100575.84;4967987;27;98095;-71
2024/02/27 11:15:21;;;;;;;;;;;;;;;12.62;49.83;100570.44;4964951;27;128772;-71
2024/02/27 11:17:51;;;;;;;;;;;;;;;12.60;50.09;100565.28;4986170;27;117782;-71
2024/02/27 11:20:17;;;;;;;;;;;;;;;12.61;50.10;100566.09;4982950;27;98290;-70
2024/02/27 11:22:44;;;;;;;;;;;;;;;12.60;49.54;100573.41;4985325;27;98490;-70
2024/02/27 11:25:10;;;;;;;;;;;;;;;12.57;50.09;100575.84;4958836;27;98269;-70
2024/02/27 11:27:37;;;;;;;;;;;;;;;12.55;49.94;100580.72;4953298;27;98124;-70
2024/02/27 11:30:03;;;;;;;;;;;;;;;12.53;50.03;100573.69;4950378;27;97928;-70
2024/02/27 11:32:32;;;;;;;;;;;;;;;12.51;50.04;100583.97;5000359;27;98119;-70
2024/02/27 11:34:59;;;;;;;;;;;;;;;12.50;50.20;100581.56;4981625;27;99763;-70
2024/02/27 11:37:25;;;;;;;;;;;;;;;12.47;50.07;100584.81;4999807;27;98182;-70
2024/02/27 11:39:51;;;;;;;;;;;;;;;12.44;50.24;100577.25;4998146;27;97908;-70
2024/02/27 11:42:40;;;;;;;;;;;;;;;12.43;50.14;100573.75;4995884;27;98613;-70
2024/02/27 11:45:07;;;;;;;;;;;;;;;12.38;50.21;100572.94;4976122;27;99644;-70
2024/02/27 11:47:37;;;;;;;;;;;;;;;12.37;50.28;100569.44;5009895;27;99240;-70
2024/02/27 11:50:06;;;;;;;;;;;;;;;12.35;50.14;100570.81;4994292;27;98364;-70
2024/02/27 11:52:34;;;;;;;;;;;;;;;12.34;50.16;100577.28;4998839;27;98084;-70
2024/02/27 11:55:08;;;;;;;;;;;;;;;12.32;50.31;100574.06;4996571;27;98007;-70
2024/02/27 11:57:35;;;;;;;;;;;;;;;12.30;50.29;100574.34;4996499;27;98192;-70
2024/02/27 12:00:14;;;;;;;;;;;;;;;12.28;50.35;100571.91;4996883;27;99553;-70
2024/02/27 12:02:45;;;;;;;;;;;;;;;12.27;50.23;100564.88;4981416;27;98194;-70
2024/02/27 12:05:12;;;;;;;;;;;;;;;12.27;50.15;100564.09;4978605;27;99789;-70
2024/02/27 12:07:38;;;;;;;;;;;;;;;12.26;50.14;100560.56;4978271;27;98029;-70
2024/02/27 12:10:11;;;;;;;;;;;;;;;12.26;50.19;100565.97;4992058;27;98281;-70
2024/02/27 12:12:38;;;;;;;;;;;;;;;12.25;50.31;100571.66;4977392;27;98607;-70
2024/02/27 12:15:05;;;;;;;;;;;;;;;12.26;50.30;100570.56;4998697;27;99304;-70
2024/02/27 12:17:33;;;;;;;;;;;;;;;12.27;50.26;100569.50;4965440;27;98075;-70
2024/02/27 12:20:05;;;;;;;;;;;;;;;12.27;50.19;100578.41;4962448;27;98212;-70
2024/02/27 12:22:32;;;;;;;;;;;;;;;12.25;50.36;100567.03;4959056;27;98684;-70
2024/02/27 12:24:59;;;;;;;;;;;;;;;12.24;50.14;100565.44;4982750;27;98382;-70
2024/02/27 12:27:25;;;;;;;;;;;;;;;12.24;50.16;100562.72;4969834;27;98332;-70
2024/02/27 12:29:51;;;;;;;;;;;;;;;12.26;50.16;100557.88;4979926;27;98145;-70
2024/02/27 12:32:18;;;;;;;;;;;;;;;12.28;50.13;100563.81;4967039;27;98596;-70